sensor_id;sensor_type;location;lat;lon;timestamp;pressure;altitude;pressure_sealevel;temperature;humidity
40948;BME280;49382;-25.924;28.194;2023-02-13T00:00:29;85023.52;;;22.30;49.65
40948;BME280;49382;-25.924;28.194;2023-02-13T00:02:55;85022.71;;;23.05;47.68
40948;BME280;49382;-25.924;28.194;2023-02-13T00:05:20;85025.47;;;22.76;47.75
40948;BME280;49382;-25.924;28.194;2023-02-13T00:07:46;85021.65;;;21.25;51.08
40948;BME280;49382;-25.924;28.194;2023-02-13T00:10:12;85020.72;;;21.55;49.98
40948;BME280;49382;-25.924;28.194;2023-02-13T00:12:37;85019.43;;;22.07;48.79
40948;BME280;49382;-25.924;28.194;2023-02-13T00:15:04;85014.93;;;22.63;47.74
40948;BME280;49382;-25.924;28.194;2023-02-13T00:17:29;85013.69;;;22.31;48.26
40948;BME280;49382;-25.924;28.194;2023-02-13T00:19:55;85011.49;;;21.61;50.69
40948;BME280;49382;-25.924;28.194;2023-02-13T00:22:20;85010.30;;;22.03;49.51
40948;BME280;49382;-25.924;28.194;2023-02-13T00:24:46;85004.25;;;21.14;50.26
40948;BME280;49382;-25.924;28.194;2023-02-13T00:27:12;85001.56;;;21.57;50.54
40948;BME280;49382;-25.924;28.194;2023-02-13T00:29:38;85002.06;;;21.63;49.60
40948;BME280;49382;-25.924;28.194;2023-02-13T00:32:04;84996.95;;;21.28;51.72
40948;BME280;49382;-25.924;28.194;2023-02-13T00:34:29;84994.46;;;21.21;51.64
40948;BME280;49382;-25.924;28.194;2023-02-13T00:36:55;84995.90;;;21.61;51.21
40948;BME280;49382;-25.924;28.194;2023-02-13T00:39:21;84994.62;;;20.64;51.88
40948;BME280;49382;-25.924;28.194;2023-02-13T00:41:46;84996.33;;;20.51;53.04
40948;BME280;49382;-25.924;28.194;2023-02-13T00:44:12;84992.06;;;22.07;50.15
40948;BME280;49382;-25.924;28.194;2023-02-13T00:46:38;84989.20;;;20.74;52.63
40948;BME280;49382;-25.924;28.194;2023-02-13T00:49:04;84989.75;;;20.66;53.38
40948;BME280;49382;-25.924;28.194;2023-02-13T00:51:30;84987.91;;;20.65;53.95
40948;BME280;49382;-25.924;28.194;2023-02-13T00:53:55;84980.39;;;21.36;52.49
40948;BME280;49382;-25.924;28.194;2023-02-13T00:56:21;84979.79;;;21.48;52.27
40948;BME280;49382;-25.924;28.194;2023-02-13T00:58:47;84976.49;;;20.99;52.37
40948;BME280;49382;-25.924;28.194;2023-02-13T01:01:12;84973.63;;;21.22;51.97
40948;BME280;49382;-25.924;28.194;2023-02-13T01:03:38;84975.53;;;20.90;51.83
40948;BME280;49382;-25.924;28.194;2023-02-13T01:06:05;84973.63;;;20.98;52.57
40948;BME280;49382;-25.924;28.194;2023-02-13T01:08:30;84973.15;;;20.91;53.50
40948;BME280;49382;-25.924;28.194;2023-02-13T01:10:56;84970.92;;;20.76;52.91
40948;BME280;49382;-25.924;28.194;2023-02-13T01:13:21;84973.64;;;21.83;51.57
40948;BME280;49382;-25.924;28.194;2023-02-13T01:15:47;84974.33;;;21.38;52.54
40948;BME280;49382;-25.924;28.194;2023-02-13T01:18:14;84971.78;;;21.07;52.94
40948;BME280;49382;-25.924;28.194;2023-02-13T01:20:38;84971.89;;;21.28;53.05
40948;BME280;49382;-25.924;28.194;2023-02-13T01:23:04;84968.92;;;21.24;53.34
40948;BME280;49382;-25.924;28.194;2023-02-13T01:25:30;84969.98;;;21.28;53.40
40948;BME280;49382;-25.924;28.194;2023-02-13T01:27:56;84969.15;;;21.98;52.12
40948;BME280;49382;-25.924;28.194;2023-02-13T01:30:21;84967.28;;;23.31;48.20
40948;BME280;49382;-25.924;28.194;2023-02-13T01:32:47;84964.51;;;22.75;49.08
40948;BME280;49382;-25.924;28.194;2023-02-13T01:35:14;84965.60;;;23.35;48.17
40948;BME280;49382;-25.924;28.194;2023-02-13T01:37:39;84965.62;;;23.29;47.78
40948;BME280;49382;-25.924;28.194;2023-02-13T01:40:06;84964.95;;;23.86;46.80
40948;BME280;49382;-25.924;28.194;2023-02-13T01:42:32;84968.16;;;23.50;47.83
40948;BME280;49382;-25.924;28.194;2023-02-13T01:44:57;84967.54;;;23.60;47.90
40948;BME280;49382;-25.924;28.194;2023-02-13T01:47:25;84964.85;;;22.00;51.01
40948;BME280;49382;-25.924;28.194;2023-02-13T01:49:48;84963.61;;;21.84;51.13
40948;BME280;49382;-25.924;28.194;2023-02-13T01:52:14;84967.91;;;21.79;52.23
40948;BME280;49382;-25.924;28.194;2023-02-13T01:54:39;84967.45;;;23.25;49.30
40948;BME280;49382;-25.924;28.194;2023-02-13T01:57:09;84970.49;;;23.93;47.07
40948;BME280;49382;-25.924;28.194;2023-02-13T01:59:34;84968.67;;;21.66;52.03
40948;BME280;49382;-25.924;28.194;2023-02-13T02:01:56;84969.16;;;23.38;48.69
40948;BME280;49382;-25.924;28.194;2023-02-13T02:04:25;84966.76;;;23.23;48.91
40948;BME280;49382;-25.924;28.194;2023-02-13T02:06:50;84967.40;;;21.66;51.89
40948;BME280;49382;-25.924;28.194;2023-02-13T02:09:17;84966.75;;;21.98;51.28
40948;BME280;49382;-25.924;28.194;2023-02-13T02:11:44;84965.06;;;23.80;47.73
40948;BME280;49382;-25.924;28.194;2023-02-13T02:14:05;84963.63;;;21.87;51.30
40948;BME280;49382;-25.924;28.194;2023-02-13T02:16:31;84963.51;;;22.55;50.19
40948;BME280;49382;-25.924;28.194;2023-02-13T02:18:56;84965.70;;;21.81;51.47
40948;BME280;49382;-25.924;28.194;2023-02-13T02:33:37;84990.05;;;21.45;53.53
40948;BME280;49382;-25.924;28.194;2023-02-13T02:36:03;84993.86;;;21.82;52.14
40948;BME280;49382;-25.924;28.194;2023-02-13T02:38:34;84994.58;;;21.69;53.20
40948;BME280;49382;-25.924;28.194;2023-02-13T02:40:56;84997.07;;;21.16;54.86
40948;BME280;49382;-25.924;28.194;2023-02-13T02:43:22;84997.49;;;21.63;53.21
40948;BME280;49382;-25.924;28.194;2023-02-13T02:45:43;84998.96;;;21.26;54.30
40948;BME280;49382;-25.924;28.194;2023-02-13T02:48:09;85004.20;;;21.39;53.35
40948;BME280;49382;-25.924;28.194;2023-02-13T02:50:35;85008.75;;;21.62;52.67
40948;BME280;49382;-25.924;28.194;2023-02-13T02:53:05;85011.67;;;21.36;53.32
40948;BME280;49382;-25.924;28.194;2023-02-13T02:55:30;85015.95;;;22.37;50.78
40948;BME280;49382;-25.924;28.194;2023-02-13T02:57:51;85014.89;;;22.68;49.86
40948;BME280;49382;-25.924;28.194;2023-02-13T03:00:13;85018.00;;;22.09;51.01
40948;BME280;49382;-25.924;28.194;2023-02-13T03:02:38;85016.65;;;22.39;50.41
40948;BME280;49382;-25.924;28.194;2023-02-13T03:05:07;85021.52;;;22.41;50.58
40948;BME280;49382;-25.924;28.194;2023-02-13T03:07:30;85026.36;;;22.76;50.21
40948;BME280;49382;-25.924;28.194;2023-02-13T03:09:58;85024.57;;;21.36;52.89
40948;BME280;49382;-25.924;28.194;2023-02-13T03:12:23;85023.47;;;21.46;53.23
40948;BME280;49382;-25.924;28.194;2023-02-13T03:14:46;85025.24;;;21.38;53.43
40948;BME280;49382;-25.924;28.194;2023-02-13T03:17:14;85030.20;;;21.29;53.77
40948;BME280;49382;-25.924;28.194;2023-02-13T03:19:50;85034.33;;;21.67;53.54
40948;BME280;49382;-25.924;28.194;2023-02-13T03:22:07;85036.90;;;21.53;52.81
40948;BME280;49382;-25.924;28.194;2023-02-13T03:24:37;85035.57;;;21.88;51.93
40948;BME280;49382;-25.924;28.194;2023-02-13T03:26:58;85036.37;;;22.04;51.73
40948;BME280;49382;-25.924;28.194;2023-02-13T03:29:30;85034.34;;;21.32;52.77
40948;BME280;49382;-25.924;28.194;2023-02-13T03:31:52;85033.49;;;22.29;51.18
40948;BME280;49382;-25.924;28.194;2023-02-13T03:34:14;85036.41;;;23.33;49.13
40948;BME280;49382;-25.924;28.194;2023-02-13T03:36:45;85042.21;;;22.14;51.24
40948;BME280;49382;-25.924;28.194;2023-02-13T03:39:08;85041.11;;;21.84;52.24
40948;BME280;49382;-25.924;28.194;2023-02-13T03:41:33;85043.18;;;21.92;52.68
40948;BME280;49382;-25.924;28.194;2023-02-13T03:44:02;85047.33;;;22.28;51.72
40948;BME280;49382;-25.924;28.194;2023-02-13T03:46:21;85050.10;;;22.16;52.49
40948;BME280;49382;-25.924;28.194;2023-02-13T03:48:47;85054.89;;;22.38;51.22
40948;BME280;49382;-25.924;28.194;2023-02-13T03:51:16;85057.13;;;20.94;54.56
40948;BME280;49382;-25.924;28.194;2023-02-13T03:53:40;85058.76;;;22.41;52.20
40948;BME280;49382;-25.924;28.194;2023-02-13T03:56:04;85059.96;;;21.60;53.89
40948;BME280;49382;-25.924;28.194;2023-02-13T03:58:32;85063.75;;;21.68;52.92
40948;BME280;49382;-25.924;28.194;2023-02-13T04:00:59;85064.16;;;21.67;52.65
40948;BME280;49382;-25.924;28.194;2023-02-13T04:03:25;85071.53;;;22.53;51.17
40948;BME280;49382;-25.924;28.194;2023-02-13T04:05:49;85074.17;;;22.58;50.77
40948;BME280;49382;-25.924;28.194;2023-02-13T04:08:12;85072.62;;;22.65;51.03
40948;BME280;49382;-25.924;28.194;2023-02-13T04:10:42;85076.15;;;21.84;52.69
40948;BME280;49382;-25.924;28.194;2023-02-13T04:13:11;85081.14;;;21.48;54.37
40948;BME280;49382;-25.924;28.194;2023-02-13T04:15:33;85084.03;;;21.44;54.13
40948;BME280;49382;-25.924;28.194;2023-02-13T04:18:02;85087.55;;;22.92;50.96
40948;BME280;49382;-25.924;28.194;2023-02-13T04:20:21;85086.16;;;21.75;53.59
40948;BME280;49382;-25.924;28.194;2023-02-13T04:22:47;85089.29;;;21.92;52.64
40948;BME280;49382;-25.924;28.194;2023-02-13T04:25:15;85093.67;;;21.29;55.35
40948;BME280;49382;-25.924;28.194;2023-02-13T04:27:38;85095.67;;;21.66;54.31
40948;BME280;49382;-25.924;28.194;2023-02-13T04:30:05;85098.33;;;21.08;56.04
40948;BME280;49382;-25.924;28.194;2023-02-13T04:32:30;85099.79;;;21.58;55.37
40948;BME280;49382;-25.924;28.194;2023-02-13T04:34:55;85102.20;;;21.61;55.45
40948;BME280;49382;-25.924;28.194;2023-02-13T04:37:21;85105.06;;;21.58;55.04
40948;BME280;49382;-25.924;28.194;2023-02-13T04:39:47;85111.69;;;21.59;55.31
40948;BME280;49382;-25.924;28.194;2023-02-13T04:42:13;85115.74;;;20.88;56.46
40948;BME280;49382;-25.924;28.194;2023-02-13T04:44:38;85111.68;;;22.69;51.78
40948;BME280;49382;-25.924;28.194;2023-02-13T04:47:04;85112.92;;;21.94;53.40
40948;BME280;49382;-25.924;28.194;2023-02-13T04:49:30;85118.28;;;21.59;54.43
40948;BME280;49382;-25.924;28.194;2023-02-13T04:51:56;85113.22;;;21.78;53.49
40948;BME280;49382;-25.924;28.194;2023-02-13T04:54:27;85117.45;;;21.83;54.05
40948;BME280;49382;-25.924;28.194;2023-02-13T04:56:47;85123.67;;;21.51;55.22
40948;BME280;49382;-25.924;28.194;2023-02-13T04:59:13;85123.57;;;21.68;55.70
40948;BME280;49382;-25.924;28.194;2023-02-13T05:01:39;85125.36;;;22.18;53.43
40948;BME280;49382;-25.924;28.194;2023-02-13T05:04:05;85128.07;;;21.64;54.89
40948;BME280;49382;-25.924;28.194;2023-02-13T05:06:30;85128.85;;;21.34;55.88
40948;BME280;49382;-25.924;28.194;2023-02-13T05:08:56;85129.32;;;21.17;56.06
40948;BME280;49382;-25.924;28.194;2023-02-13T05:11:21;85131.23;;;20.64;56.79
40948;BME280;49382;-25.924;28.194;2023-02-13T05:13:47;85131.36;;;21.00;56.28
40948;BME280;49382;-25.924;28.194;2023-02-13T05:16:12;85135.63;;;21.50;55.12
40948;BME280;49382;-25.924;28.194;2023-02-13T05:18:38;85134.29;;;21.51;54.54
40948;BME280;49382;-25.924;28.194;2023-02-13T05:21:04;85134.83;;;21.03;55.85
40948;BME280;49382;-25.924;28.194;2023-02-13T05:23:30;85136.80;;;20.56;56.76
40948;BME280;49382;-25.924;28.194;2023-02-13T05:25:55;85136.54;;;21.13;56.12
40948;BME280;49382;-25.924;28.194;2023-02-13T05:28:21;85139.95;;;22.01;53.57
40948;BME280;49382;-25.924;28.194;2023-02-13T05:30:47;85144.36;;;21.37;55.35
40948;BME280;49382;-25.924;28.194;2023-02-13T05:33:13;85141.10;;;23.06;51.87
40948;BME280;49382;-25.924;28.194;2023-02-13T05:35:38;85148.56;;;21.54;55.41
40948;BME280;49382;-25.924;28.194;2023-02-13T05:38:04;85147.22;;;21.44;54.71
40948;BME280;49382;-25.924;28.194;2023-02-13T05:40:30;85148.02;;;21.18;55.82
40948;BME280;49382;-25.924;28.194;2023-02-13T05:42:56;85152.40;;;21.21;56.01
40948;BME280;49382;-25.924;28.194;2023-02-13T05:45:21;85156.20;;;21.44;55.56
40948;BME280;49382;-25.924;28.194;2023-02-13T05:47:47;85160.86;;;21.96;54.31
40948;BME280;49382;-25.924;28.194;2023-02-13T05:50:13;85163.93;;;21.43;55.83
40948;BME280;49382;-25.924;28.194;2023-02-13T05:52:39;85164.50;;;22.16;54.07
40948;BME280;49382;-25.924;28.194;2023-02-13T05:55:05;85168.86;;;21.64;55.51
40948;BME280;49382;-25.924;28.194;2023-02-13T05:57:30;85169.93;;;21.83;54.67
40948;BME280;49382;-25.924;28.194;2023-02-13T05:59:56;85171.93;;;20.96;56.89
40948;BME280;49382;-25.924;28.194;2023-02-13T06:02:22;85175.93;;;21.09;56.84
40948;BME280;49382;-25.924;28.194;2023-02-13T06:04:47;85178.25;;;21.57;55.42
40948;BME280;49382;-25.924;28.194;2023-02-13T06:07:13;85183.80;;;21.33;55.73
40948;BME280;49382;-25.924;28.194;2023-02-13T06:09:39;85185.02;;;21.93;54.79
40948;BME280;49382;-25.924;28.194;2023-02-13T06:12:05;85187.88;;;21.36;55.46
40948;BME280;49382;-25.924;28.194;2023-02-13T06:14:30;85191.06;;;21.19;55.58
40948;BME280;49382;-25.924;28.194;2023-02-13T06:16:56;85189.26;;;23.00;51.68
40948;BME280;49382;-25.924;28.194;2023-02-13T06:19:22;85190.69;;;23.03;50.84
40948;BME280;49382;-25.924;28.194;2023-02-13T06:21:48;85197.09;;;22.18;53.42
40948;BME280;49382;-25.924;28.194;2023-02-13T06:24:13;85196.88;;;21.17;54.48
40948;BME280;49382;-25.924;28.194;2023-02-13T06:26:39;85200.93;;;21.74;54.31
40948;BME280;49382;-25.924;28.194;2023-02-13T06:29:05;85198.87;;;21.52;54.74
40948;BME280;49382;-25.924;28.194;2023-02-13T06:31:31;85200.36;;;21.72;55.59
40948;BME280;49382;-25.924;28.194;2023-02-13T06:33:57;85199.39;;;21.72;53.38
40948;BME280;49382;-25.924;28.194;2023-02-13T06:36:22;85196.24;;;21.20;55.61
40948;BME280;49382;-25.924;28.194;2023-02-13T06:38:48;85200.15;;;21.29;55.97
40948;BME280;49382;-25.924;28.194;2023-02-13T06:41:14;85201.53;;;21.58;54.48
40948;BME280;49382;-25.924;28.194;2023-02-13T06:43:39;85198.61;;;22.36;53.13
40948;BME280;49382;-25.924;28.194;2023-02-13T06:46:06;85201.65;;;21.27;55.54
40948;BME280;49382;-25.924;28.194;2023-02-13T06:48:31;85206.31;;;21.44;55.49
40948;BME280;49382;-25.924;28.194;2023-02-13T06:50:57;85206.19;;;21.36;54.03
40948;BME280;49382;-25.924;28.194;2023-02-13T06:53:22;85204.72;;;21.34;54.57
40948;BME280;49382;-25.924;28.194;2023-02-13T06:55:48;85209.40;;;22.09;53.19
40948;BME280;49382;-25.924;28.194;2023-02-13T06:58:14;85213.40;;;21.58;54.61
40948;BME280;49382;-25.924;28.194;2023-02-13T07:00:40;85214.43;;;21.97;54.22
40948;BME280;49382;-25.924;28.194;2023-02-13T07:03:06;85211.15;;;21.92;53.30
40948;BME280;49382;-25.924;28.194;2023-02-13T07:05:31;85209.41;;;23.24;50.13
40948;BME280;49382;-25.924;28.194;2023-02-13T07:07:57;85215.64;;;22.20;53.64
40948;BME280;49382;-25.924;28.194;2023-02-13T07:10:23;85217.27;;;21.30;55.00
40948;BME280;49382;-25.924;28.194;2023-02-13T07:12:48;85220.31;;;21.19;55.13
40948;BME280;49382;-25.924;28.194;2023-02-13T07:15:14;85215.40;;;21.29;56.56
40948;BME280;49382;-25.924;28.194;2023-02-13T07:17:40;85215.04;;;20.66;57.13
40948;BME280;49382;-25.924;28.194;2023-02-13T07:20:07;85214.78;;;20.88;57.09
40948;BME280;49382;-25.924;28.194;2023-02-13T07:22:32;85211.30;;;20.34;57.74
40948;BME280;49382;-25.924;28.194;2023-02-13T07:24:58;85209.00;;;20.62;56.63
40948;BME280;49382;-25.924;28.194;2023-02-13T07:27:23;85201.32;;;20.89;55.53
40948;BME280;49382;-25.924;28.194;2023-02-13T07:29:49;85201.80;;;21.22;54.86
40948;BME280;49382;-25.924;28.194;2023-02-13T07:32:15;85199.58;;;21.08;55.98
40948;BME280;49382;-25.924;28.194;2023-02-13T07:34:40;85199.30;;;22.00;53.82
40948;BME280;49382;-25.924;28.194;2023-02-13T07:37:06;85197.81;;;21.44;55.02
40948;BME280;49382;-25.924;28.194;2023-02-13T07:39:31;85195.03;;;21.05;56.85
40948;BME280;49382;-25.924;28.194;2023-02-13T07:41:57;85191.91;;;22.87;52.18
40948;BME280;49382;-25.924;28.194;2023-02-13T07:44:22;85190.54;;;23.42;50.65
40948;BME280;49382;-25.924;28.194;2023-02-13T07:46:48;85188.65;;;21.46;53.55
40948;BME280;49382;-25.924;28.194;2023-02-13T07:49:14;85186.46;;;21.37;53.59
40948;BME280;49382;-25.924;28.194;2023-02-13T07:51:40;85184.23;;;21.98;53.57
40948;BME280;49382;-25.924;28.194;2023-02-13T07:54:06;85184.74;;;22.14;54.64
40948;BME280;49382;-25.924;28.194;2023-02-13T07:56:31;85177.70;;;23.81;50.89
40948;BME280;49382;-25.924;28.194;2023-02-13T07:58:57;85175.97;;;21.95;55.06
40948;BME280;49382;-25.924;28.194;2023-02-13T08:01:23;85174.77;;;22.25;54.70
40948;BME280;49382;-25.924;28.194;2023-02-13T08:03:49;85171.64;;;22.10;52.50
40948;BME280;49382;-25.924;28.194;2023-02-13T08:06:14;85167.60;;;23.20;53.45
40948;BME280;49382;-25.924;28.194;2023-02-13T08:08:40;85166.36;;;22.51;51.95
40948;BME280;49382;-25.924;28.194;2023-02-13T08:11:11;85163.77;;;22.10;51.46
40948;BME280;49382;-25.924;28.194;2023-02-13T08:13:31;85163.90;;;22.84;51.63
40948;BME280;49382;-25.924;28.194;2023-02-13T08:15:57;85159.53;;;22.98;50.32
40948;BME280;49382;-25.924;28.194;2023-02-13T08:18:23;85159.19;;;24.23;49.55
40948;BME280;49382;-25.924;28.194;2023-02-13T08:20:48;85156.29;;;23.20;51.49
40948;BME280;49382;-25.924;28.194;2023-02-13T08:23:14;85153.23;;;23.10;53.34
40948;BME280;49382;-25.924;28.194;2023-02-13T08:25:40;85150.55;;;25.91;48.63
40948;BME280;49382;-25.924;28.194;2023-02-13T08:28:06;85142.54;;;25.29;48.68
40948;BME280;49382;-25.924;28.194;2023-02-13T08:30:31;85140.32;;;24.42;51.92
40948;BME280;49382;-25.924;28.194;2023-02-13T08:32:57;85140.66;;;23.81;53.06
40948;BME280;49382;-25.924;28.194;2023-02-13T08:35:23;85139.36;;;24.10;51.42
40948;BME280;49382;-25.924;28.194;2023-02-13T08:37:48;85138.68;;;23.66;51.84
40948;BME280;49382;-25.924;28.194;2023-02-13T08:40:14;85140.25;;;25.42;48.02
40948;BME280;49382;-25.924;28.194;2023-02-13T08:42:39;85140.96;;;25.50;47.95
40948;BME280;49382;-25.924;28.194;2023-02-13T08:45:05;85136.51;;;23.81;46.26
40948;BME280;49382;-25.924;28.194;2023-02-13T08:47:30;85138.43;;;25.26;45.77
40948;BME280;49382;-25.924;28.194;2023-02-13T08:49:58;85135.35;;;25.05;46.21
40948;BME280;49382;-25.924;28.194;2023-02-13T08:52:21;85138.32;;;24.44;47.86
40948;BME280;49382;-25.924;28.194;2023-02-13T08:54:47;85134.59;;;23.81;50.33
40948;BME280;49382;-25.924;28.194;2023-02-13T08:57:13;85133.69;;;23.70;49.38
40948;BME280;49382;-25.924;28.194;2023-02-13T08:59:38;85133.38;;;23.39;49.73
40948;BME280;49382;-25.924;28.194;2023-02-13T09:02:04;85134.03;;;24.09;47.27
40948;BME280;49382;-25.924;28.194;2023-02-13T09:04:30;85135.80;;;23.64;48.46
40948;BME280;49382;-25.924;28.194;2023-02-13T09:06:56;85138.16;;;23.33;50.89
40948;BME280;49382;-25.924;28.194;2023-02-13T09:09:21;85143.75;;;25.52;45.60
40948;BME280;49382;-25.924;28.194;2023-02-13T09:11:47;85140.26;;;25.14;46.86
40948;BME280;49382;-25.924;28.194;2023-02-13T09:14:13;85141.19;;;22.80;50.39
40948;BME280;49382;-25.924;28.194;2023-02-13T09:16:38;85137.59;;;22.48;49.16
40948;BME280;49382;-25.924;28.194;2023-02-13T09:19:04;85135.19;;;23.62;47.98
40948;BME280;49382;-25.924;28.194;2023-02-13T09:21:30;85130.82;;;24.50;46.53
40948;BME280;49382;-25.924;28.194;2023-02-13T09:23:56;85134.96;;;23.03;49.51
40948;BME280;49382;-25.924;28.194;2023-02-13T09:26:21;85133.35;;;22.86;49.41
40948;BME280;49382;-25.924;28.194;2023-02-13T09:28:47;85134.33;;;24.59;46.61
40948;BME280;49382;-25.924;28.194;2023-02-13T09:31:16;85135.64;;;22.88;51.50
40948;BME280;49382;-25.924;28.194;2023-02-13T09:33:38;85139.66;;;22.73;52.62
40948;BME280;49382;-25.924;28.194;2023-02-13T09:36:05;85134.49;;;22.55;54.00
40948;BME280;49382;-25.924;28.194;2023-02-13T09:38:30;85134.81;;;22.36;54.38
40948;BME280;49382;-25.924;28.194;2023-02-13T09:40:59;85137.94;;;22.56;52.99
40948;BME280;49382;-25.924;28.194;2023-02-13T09:43:27;85135.33;;;22.77;53.05
40948;BME280;49382;-25.924;28.194;2023-02-13T09:45:48;85135.43;;;22.52;53.68
40948;BME280;49382;-25.924;28.194;2023-02-13T09:48:18;85137.14;;;23.39;52.21
40948;BME280;49382;-25.924;28.194;2023-02-13T09:50:39;85135.06;;;23.35;51.76
40948;BME280;49382;-25.924;28.194;2023-02-13T09:53:04;85136.53;;;22.42;53.79
40948;BME280;49382;-25.924;28.194;2023-02-13T09:55:36;85136.16;;;22.34;54.21
40948;BME280;49382;-25.924;28.194;2023-02-13T09:58:01;85131.81;;;22.33;54.19
40948;BME280;49382;-25.924;28.194;2023-02-13T10:00:27;85131.57;;;23.62;52.16
40948;BME280;49382;-25.924;28.194;2023-02-13T10:02:58;85127.33;;;23.12;52.31
40948;BME280;49382;-25.924;28.194;2023-02-13T10:05:22;85124.06;;;23.11;52.70
40948;BME280;49382;-25.924;28.194;2023-02-13T10:07:44;85123.93;;;24.32;50.04
40948;BME280;49382;-25.924;28.194;2023-02-13T10:10:12;85122.65;;;24.49;49.68
40948;BME280;49382;-25.924;28.194;2023-02-13T10:12:41;85118.73;;;23.64;52.89
40948;BME280;49382;-25.924;28.194;2023-02-13T10:15:07;85122.05;;;23.60;52.02
40948;BME280;49382;-25.924;28.194;2023-02-13T10:17:25;85123.12;;;24.10;51.50
40948;BME280;49382;-25.924;28.194;2023-02-13T10:19:52;85119.03;;;24.34;47.38
40948;BME280;49382;-25.924;28.194;2023-02-13T10:22:16;85116.29;;;24.09;50.05
40948;BME280;49382;-25.924;28.194;2023-02-13T10:24:43;85112.74;;;23.57;52.46
40948;BME280;49382;-25.924;28.194;2023-02-13T10:27:14;85115.25;;;24.14;48.97
40948;BME280;49382;-25.924;28.194;2023-02-13T10:29:37;85115.17;;;24.23;47.03
40948;BME280;49382;-25.924;28.194;2023-02-13T10:31:58;85113.16;;;23.00;49.19
40948;BME280;49382;-25.924;28.194;2023-02-13T10:34:23;85112.61;;;22.85;50.51
40948;BME280;49382;-25.924;28.194;2023-02-13T10:36:48;85112.51;;;23.16;48.92
40948;BME280;49382;-25.924;28.194;2023-02-13T10:39:22;85116.48;;;24.39;48.04
40948;BME280;49382;-25.924;28.194;2023-02-13T10:41:46;85112.60;;;23.28;48.69
40948;BME280;49382;-25.924;28.194;2023-02-13T10:44:18;85111.50;;;23.24;48.87
40948;BME280;49382;-25.924;28.194;2023-02-13T10:46:36;85110.49;;;23.56;48.78
40948;BME280;49382;-25.924;28.194;2023-02-13T10:49:09;85106.61;;;23.57;49.26
40948;BME280;49382;-25.924;28.194;2023-02-13T10:51:27;85102.48;;;22.97;48.93
40948;BME280;49382;-25.924;28.194;2023-02-13T10:54:00;85101.19;;;23.10;50.20
40948;BME280;49382;-25.924;28.194;2023-02-13T10:58:46;85103.66;;;23.33;52.89
40948;BME280;49382;-25.924;28.194;2023-02-13T11:01:09;85105.72;;;23.90;51.28
40948;BME280;49382;-25.924;28.194;2023-02-13T11:03:30;85110.22;;;23.44;50.49
40948;BME280;49382;-25.924;28.194;2023-02-13T11:05:57;85111.73;;;24.40;49.32
40948;BME280;49382;-25.924;28.194;2023-02-13T11:08:24;85106.88;;;24.19;50.76
40948;BME280;49382;-25.924;28.194;2023-02-13T11:10:47;85101.49;;;24.02;50.18
40948;BME280;49382;-25.924;28.194;2023-02-13T11:13:20;85099.62;;;24.95;49.20
40948;BME280;49382;-25.924;28.194;2023-02-13T11:15:39;85094.74;;;23.52;49.15
40948;BME280;49382;-25.924;28.194;2023-02-13T11:18:14;85091.38;;;24.83;46.43
40948;BME280;49382;-25.924;28.194;2023-02-13T11:20:34;85091.99;;;24.11;49.78
40948;BME280;49382;-25.924;28.194;2023-02-13T11:22:56;85089.48;;;23.30;48.90
40948;BME280;49382;-25.924;28.194;2023-02-13T11:25:24;85089.95;;;24.49;47.77
40948;BME280;49382;-25.924;28.194;2023-02-13T11:27:49;85089.57;;;23.57;49.39
40948;BME280;49382;-25.924;28.194;2023-02-13T11:32:38;85083.34;;;25.61;43.99
40948;BME280;49382;-25.924;28.194;2023-02-13T11:37:30;85066.68;;;24.41;48.31
40948;BME280;49382;-25.924;28.194;2023-02-13T11:39:57;85067.02;;;23.55;49.73
40948;BME280;49382;-25.924;28.194;2023-02-13T11:42:27;85064.32;;;23.16;51.41
40948;BME280;49382;-25.924;28.194;2023-02-13T11:44:51;85065.18;;;23.62;50.32
40948;BME280;49382;-25.924;28.194;2023-02-13T11:47:13;85064.63;;;23.43;49.78
40948;BME280;49382;-25.924;28.194;2023-02-13T11:49:39;85067.14;;;24.85;46.43
40948;BME280;49382;-25.924;28.194;2023-02-13T11:52:06;85064.03;;;24.77;45.81
40948;BME280;49382;-25.924;28.194;2023-02-13T11:54:33;85061.48;;;24.00;47.55
40948;BME280;49382;-25.924;28.194;2023-02-13T11:56:57;85057.58;;;24.20;47.34
40948;BME280;49382;-25.924;28.194;2023-02-13T11:59:23;85055.89;;;23.16;48.60
40948;BME280;49382;-25.924;28.194;2023-02-13T12:01:49;85049.77;;;22.87;49.50
40948;BME280;49382;-25.924;28.194;2023-02-13T12:04:16;85048.80;;;22.89;50.54
40948;BME280;49382;-25.924;28.194;2023-02-13T12:06:39;85049.75;;;24.60;46.92
40948;BME280;49382;-25.924;28.194;2023-02-13T12:09:08;85043.85;;;25.31;45.44
40948;BME280;49382;-25.924;28.194;2023-02-13T12:11:39;85042.22;;;25.03;46.04
40948;BME280;49382;-25.924;28.194;2023-02-13T12:13:57;85031.82;;;24.36;46.66
40948;BME280;49382;-25.924;28.194;2023-02-13T12:16:29;85026.16;;;23.18;50.08
40948;BME280;49382;-25.924;28.194;2023-02-13T12:18:51;85024.37;;;23.29;50.68
40948;BME280;49382;-25.924;28.194;2023-02-13T12:21:23;85020.34;;;23.00;50.79
40948;BME280;49382;-25.924;28.194;2023-02-13T12:23:45;85021.24;;;24.38;47.57
40948;BME280;49382;-25.924;28.194;2023-02-13T12:26:15;85015.15;;;25.33;45.99
40948;BME280;49382;-25.924;28.194;2023-02-13T12:28:43;85015.29;;;23.84;49.29
40948;BME280;49382;-25.924;28.194;2023-02-13T12:33:33;85009.02;;;23.82;50.49
40948;BME280;49382;-25.924;28.194;2023-02-13T12:35:53;85013.22;;;23.55;50.62
40948;BME280;49382;-25.924;28.194;2023-02-13T12:38:21;85016.60;;;25.11;48.15
40948;BME280;49382;-25.924;28.194;2023-02-13T12:43:21;85005.66;;;24.08;51.17
40948;BME280;49382;-25.924;28.194;2023-02-13T12:45:34;85007.47;;;25.14;47.52
40948;BME280;49382;-25.924;28.194;2023-02-13T12:48:03;85001.82;;;24.14;49.59
40948;BME280;49382;-25.924;28.194;2023-02-13T12:50:35;84998.49;;;24.17;50.37
40948;BME280;49382;-25.924;28.194;2023-02-13T12:52:55;84995.02;;;25.10;48.38
40948;BME280;49382;-25.924;28.194;2023-02-13T12:57:46;84997.48;;;25.10;49.07